sensor_id;sensor_type;location;lat;lon;timestamp;P1;durP1;ratioP1;P2;durP2;ratioP2
23898;SDS011;20544;50.018;20.010;2024-03-08T00:01:04;26.18;;;20.78;;
23898;SDS011;20544;50.018;20.010;2024-03-08T00:04:30;26.08;;;20.98;;
23898;SDS011;20544;50.018;20.010;2024-03-08T00:07:59;29.23;;;21.17;;
23898;SDS011;20544;50.018;20.010;2024-03-08T00:11:25;29.93;;;22.78;;
23898;SDS011;20544;50.018;20.010;2024-03-08T00:14:52;23.02;;;20.45;;
23898;SDS011;20544;50.018;20.010;2024-03-08T00:18:23;26.93;;;20.60;;
23898;SDS011;20544;50.018;20.010;2024-03-08T00:21:55;24.15;;;20.30;;
23898;SDS011;20544;50.018;20.010;2024-03-08T00:25:25;29.78;;;21.73;;
23898;SDS011;20544;50.018;20.010;2024-03-08T00:28:55;30.30;;;21.13;;
23898;SDS011;20544;50.018;20.010;2024-03-08T00:32:25;27.98;;;20.18;;
23898;SDS011;20544;50.018;20.010;2024-03-08T00:35:54;32.68;;;21.13;;
23898;SDS011;20544;50.018;20.010;2024-03-08T00:39:22;28.10;;;20.30;;
23898;SDS011;20544;50.018;20.010;2024-03-08T00:42:48;22.65;;;18.78;;
23898;SDS011;20544;50.018;20.010;2024-03-08T00:46:18;26.65;;;19.13;;
23898;SDS011;20544;50.018;20.010;2024-03-08T00:49:51;27.25;;;21.23;;
23898;SDS011;20544;50.018;20.010;2024-03-08T00:56:40;28.75;;;20.20;;
23898;SDS011;20544;50.018;20.010;2024-03-08T01:03:35;23.13;;;19.05;;
23898;SDS011;20544;50.018;20.010;2024-03-08T01:10:33;22.83;;;20.20;;
23898;SDS011;20544;50.018;20.010;2024-03-08T01:14:03;25.68;;;20.45;;
23898;SDS011;20544;50.018;20.010;2024-03-08T01:17:46;26.68;;;21.30;;
23898;SDS011;20544;50.018;20.010;2024-03-08T01:21:21;28.45;;;20.88;;
23898;SDS011;20544;50.018;20.010;2024-03-08T01:24:55;31.70;;;21.77;;
23898;SDS011;20544;50.018;20.010;2024-03-08T01:28:36;31.03;;;20.93;;
23898;SDS011;20544;50.018;20.010;2024-03-08T01:32:10;31.78;;;21.55;;
23898;SDS011;20544;50.018;20.010;2024-03-08T01:35:43;30.80;;;21.33;;
23898;SDS011;20544;50.018;20.010;2024-03-08T01:39:11;27.40;;;21.10;;
23898;SDS011;20544;50.018;20.010;2024-03-08T01:42:42;27.48;;;21.53;;
23898;SDS011;20544;50.018;20.010;2024-03-08T01:46:09;28.15;;;21.75;;
23898;SDS011;20544;50.018;20.010;2024-03-08T01:49:44;28.63;;;22.18;;
23898;SDS011;20544;50.018;20.010;2024-03-08T01:53:19;32.53;;;22.18;;
23898;SDS011;20544;50.018;20.010;2024-03-08T01:56:53;28.08;;;21.70;;
23898;SDS011;20544;50.018;20.010;2024-03-08T02:00:30;26.35;;;21.30;;
23898;SDS011;20544;50.018;20.010;2024-03-08T02:04:07;25.83;;;22.10;;
23898;SDS011;20544;50.018;20.010;2024-03-08T02:07:37;28.05;;;22.98;;
23898;SDS011;20544;50.018;20.010;2024-03-08T02:11:05;27.05;;;22.55;;
23898;SDS011;20544;50.018;20.010;2024-03-08T02:14:40;33.75;;;23.83;;
23898;SDS011;20544;50.018;20.010;2024-03-08T02:21:34;29.23;;;22.08;;
23898;SDS011;20544;50.018;20.010;2024-03-08T02:25:05;27.70;;;23.93;;
23898;SDS011;20544;50.018;20.010;2024-03-08T02:28:41;26.55;;;22.08;;
23898;SDS011;20544;50.018;20.010;2024-03-08T02:32:11;31.78;;;23.65;;
23898;SDS011;20544;50.018;20.010;2024-03-08T02:35:40;34.30;;;23.02;;
23898;SDS011;20544;50.018;20.010;2024-03-08T02:39:09;28.07;;;22.57;;
23898;SDS011;20544;50.018;20.010;2024-03-08T02:42:38;29.08;;;23.90;;
23898;SDS011;20544;50.018;20.010;2024-03-08T02:46:08;27.68;;;23.68;;
23898;SDS011;20544;50.018;20.010;2024-03-08T02:49:34;31.50;;;24.45;;
23898;SDS011;20544;50.018;20.010;2024-03-08T02:53:00;30.10;;;23.95;;
23898;SDS011;20544;50.018;20.010;2024-03-08T02:56:30;31.40;;;24.30;;
23898;SDS011;20544;50.018;20.010;2024-03-08T02:59:55;36.25;;;25.30;;
23898;SDS011;20544;50.018;20.010;2024-03-08T03:03:20;34.40;;;25.48;;
23898;SDS011;20544;50.018;20.010;2024-03-08T03:06:41;33.00;;;24.75;;
23898;SDS011;20544;50.018;20.010;2024-03-08T03:10:04;34.13;;;25.18;;
23898;SDS011;20544;50.018;20.010;2024-03-08T03:13:34;36.00;;;26.73;;
23898;SDS011;20544;50.018;20.010;2024-03-08T03:17:34;36.93;;;27.75;;
23898;SDS011;20544;50.018;20.010;2024-03-08T03:21:02;33.40;;;27.48;;
23898;SDS011;20544;50.018;20.010;2024-03-08T03:24:26;34.28;;;27.40;;
23898;SDS011;20544;50.018;20.010;2024-03-08T03:27:57;45.78;;;29.53;;
23898;SDS011;20544;50.018;20.010;2024-03-08T03:31:47;38.93;;;30.65;;
23898;SDS011;20544;50.018;20.010;2024-03-08T03:35:21;39.45;;;29.78;;
23898;SDS011;20544;50.018;20.010;2024-03-08T03:39:21;38.58;;;31.05;;
23898;SDS011;20544;50.018;20.010;2024-03-08T03:42:59;37.83;;;30.08;;
23898;SDS011;20544;50.018;20.010;2024-03-08T03:46:30;42.03;;;31.43;;
23898;SDS011;20544;50.018;20.010;2024-03-08T03:50:41;43.60;;;30.08;;
23898;SDS011;20544;50.018;20.010;2024-03-08T03:54:16;41.93;;;28.73;;
23898;SDS011;20544;50.018;20.010;2024-03-08T03:57:44;31.93;;;28.40;;
23898;SDS011;20544;50.018;20.010;2024-03-08T04:01:19;34.38;;;29.40;;
23898;SDS011;20544;50.018;20.010;2024-03-08T04:04:45;35.90;;;30.45;;
23898;SDS011;20544;50.018;20.010;2024-03-08T04:08:09;39.25;;;30.83;;
23898;SDS011;20544;50.018;20.010;2024-03-08T04:11:37;42.80;;;31.08;;
23898;SDS011;20544;50.018;20.010;2024-03-08T04:15:08;34.08;;;30.43;;
23898;SDS011;20544;50.018;20.010;2024-03-08T04:18:34;38.80;;;32.50;;
23898;SDS011;20544;50.018;20.010;2024-03-08T04:22:03;39.85;;;31.63;;
23898;SDS011;20544;50.018;20.010;2024-03-08T04:25:31;40.25;;;31.98;;
23898;SDS011;20544;50.018;20.010;2024-03-08T04:28:54;39.70;;;32.58;;
23898;SDS011;20544;50.018;20.010;2024-03-08T04:32:24;44.23;;;34.28;;
23898;SDS011;20544;50.018;20.010;2024-03-08T04:35:54;42.43;;;34.08;;
23898;SDS011;20544;50.018;20.010;2024-03-08T04:39:24;47.45;;;35.43;;
23898;SDS011;20544;50.018;20.010;2024-03-08T04:42:49;44.50;;;33.60;;
23898;SDS011;20544;50.018;20.010;2024-03-08T04:46:14;42.48;;;32.93;;
23898;SDS011;20544;50.018;20.010;2024-03-08T04:49:42;50.65;;;33.33;;
23898;SDS011;20544;50.018;20.010;2024-03-08T04:53:09;49.03;;;33.65;;
23898;SDS011;20544;50.018;20.010;2024-03-08T04:56:35;46.43;;;35.10;;
23898;SDS011;20544;50.018;20.010;2024-03-08T05:00:00;51.10;;;35.05;;
23898;SDS011;20544;50.018;20.010;2024-03-08T05:03:23;41.75;;;34.38;;
23898;SDS011;20544;50.018;20.010;2024-03-08T05:06:47;44.25;;;33.95;;
23898;SDS011;20544;50.018;20.010;2024-03-08T05:10:34;43.18;;;34.23;;
23898;SDS011;20544;50.018;20.010;2024-03-08T05:14:02;39.03;;;33.43;;
23898;SDS011;20544;50.018;20.010;2024-03-08T05:17:27;44.40;;;30.95;;
23898;SDS011;20544;50.018;20.010;2024-03-08T05:20:57;42.00;;;31.63;;
23898;SDS011;20544;50.018;20.010;2024-03-08T05:24:27;36.75;;;29.70;;
23898;SDS011;20544;50.018;20.010;2024-03-08T05:27:54;37.90;;;30.83;;
23898;SDS011;20544;50.018;20.010;2024-03-08T05:35:23;37.88;;;30.23;;
23898;SDS011;20544;50.018;20.010;2024-03-08T05:42:24;43.05;;;28.05;;
23898;SDS011;20544;50.018;20.010;2024-03-08T05:45:45;41.30;;;31.63;;
23898;SDS011;20544;50.018;20.010;2024-03-08T05:49:14;44.20;;;31.15;;
23898;SDS011;20544;50.018;20.010;2024-03-08T05:52:44;41.28;;;32.45;;
23898;SDS011;20544;50.018;20.010;2024-03-08T05:56:18;42.55;;;33.20;;
23898;SDS011;20544;50.018;20.010;2024-03-08T05:59:46;40.13;;;31.35;;
23898;SDS011;20544;50.018;20.010;2024-03-08T06:03:17;36.95;;;29.85;;
23898;SDS011;20544;50.018;20.010;2024-03-08T06:06:43;40.13;;;31.55;;
23898;SDS011;20544;50.018;20.010;2024-03-08T06:10:07;39.53;;;32.45;;
23898;SDS011;20544;50.018;20.010;2024-03-08T06:13:32;50.35;;;34.48;;
23898;SDS011;20544;50.018;20.010;2024-03-08T06:16:53;42.75;;;32.38;;
23898;SDS011;20544;50.018;20.010;2024-03-08T06:20:17;45.03;;;34.25;;
23898;SDS011;20544;50.018;20.010;2024-03-08T06:23:40;47.13;;;37.60;;
23898;SDS011;20544;50.018;20.010;2024-03-08T06:27:22;52.13;;;39.35;;
23898;SDS011;20544;50.018;20.010;2024-03-08T06:30:52;49.83;;;38.58;;
23898;SDS011;20544;50.018;20.010;2024-03-08T06:34:21;50.58;;;37.68;;
23898;SDS011;20544;50.018;20.010;2024-03-08T06:37:47;48.55;;;36.58;;
23898;SDS011;20544;50.018;20.010;2024-03-08T06:41:05;46.63;;;36.18;;
23898;SDS011;20544;50.018;20.010;2024-03-08T06:47:40;39.13;;;32.70;;
23898;SDS011;20544;50.018;20.010;2024-03-08T06:50:59;48.25;;;36.23;;
23898;SDS011;20544;50.018;20.010;2024-03-08T06:54:19;46.78;;;35.20;;
23898;SDS011;20544;50.018;20.010;2024-03-08T06:57:37;43.45;;;34.00;;
23898;SDS011;20544;50.018;20.010;2024-03-08T07:00:55;41.30;;;32.50;;
23898;SDS011;20544;50.018;20.010;2024-03-08T07:04:16;39.13;;;33.90;;
23898;SDS011;20544;50.018;20.010;2024-03-08T07:07:38;40.28;;;33.28;;
23898;SDS011;20544;50.018;20.010;2024-03-08T07:10:59;41.75;;;32.50;;
23898;SDS011;20544;50.018;20.010;2024-03-08T07:14:20;46.50;;;34.55;;
23898;SDS011;20544;50.018;20.010;2024-03-08T07:17:40;43.35;;;33.93;;
23898;SDS011;20544;50.018;20.010;2024-03-08T07:21:03;42.28;;;31.95;;
23898;SDS011;20544;50.018;20.010;2024-03-08T07:24:32;34.83;;;29.70;;
23898;SDS011;20544;50.018;20.010;2024-03-08T07:28:18;50.25;;;34.45;;
23898;SDS011;20544;50.018;20.010;2024-03-08T07:31:53;48.30;;;34.85;;
23898;SDS011;20544;50.018;20.010;2024-03-08T07:35:35;45.55;;;33.23;;
23898;SDS011;20544;50.018;20.010;2024-03-08T07:39:25;43.08;;;32.45;;
23898;SDS011;20544;50.018;20.010;2024-03-08T07:42:57;55.48;;;33.13;;
23898;SDS011;20544;50.018;20.010;2024-03-08T07:46:22;49.03;;;33.95;;
23898;SDS011;20544;50.018;20.010;2024-03-08T07:49:47;45.50;;;34.28;;
23898;SDS011;20544;50.018;20.010;2024-03-08T07:53:08;44.43;;;35.13;;
23898;SDS011;20544;50.018;20.010;2024-03-08T07:56:34;40.83;;;32.98;;
23898;SDS011;20544;50.018;20.010;2024-03-08T07:59:55;49.23;;;33.85;;
23898;SDS011;20544;50.018;20.010;2024-03-08T08:03:21;39.05;;;31.33;;
23898;SDS011;20544;50.018;20.010;2024-03-08T08:06:39;45.93;;;33.13;;
23898;SDS011;20544;50.018;20.010;2024-03-08T08:09:59;46.13;;;33.15;;
23898;SDS011;20544;50.018;20.010;2024-03-08T08:13:23;38.40;;;31.00;;
23898;SDS011;20544;50.018;20.010;2024-03-08T08:16:50;43.35;;;28.90;;
23898;SDS011;20544;50.018;20.010;2024-03-08T08:23:33;36.05;;;27.88;;
23898;SDS011;20544;50.018;20.010;2024-03-08T08:26:56;35.40;;;27.58;;
23898;SDS011;20544;50.018;20.010;2024-03-08T08:30:14;39.90;;;27.68;;
23898;SDS011;20544;50.018;20.010;2024-03-08T08:33:34;34.53;;;27.73;;
23898;SDS011;20544;50.018;20.010;2024-03-08T08:37:04;39.80;;;28.00;;
23898;SDS011;20544;50.018;20.010;2024-03-08T08:40:30;27.93;;;24.95;;
23898;SDS011;20544;50.018;20.010;2024-03-08T08:44:03;29.25;;;24.20;;
23898;SDS011;20544;50.018;20.010;2024-03-08T08:47:30;35.18;;;23.78;;
23898;SDS011;20544;50.018;20.010;2024-03-08T08:50:53;33.93;;;24.80;;
23898;SDS011;20544;50.018;20.010;2024-03-08T08:54:20;29.23;;;24.73;;
23898;SDS011;20544;50.018;20.010;2024-03-08T08:57:50;124.55;;;82.98;;
23898;SDS011;20544;50.018;20.010;2024-03-08T09:01:24;40.40;;;32.30;;
23898;SDS011;20544;50.018;20.010;2024-03-08T09:04:44;35.53;;;26.90;;
23898;SDS011;20544;50.018;20.010;2024-03-08T09:08:22;31.48;;;23.85;;
23898;SDS011;20544;50.018;20.010;2024-03-08T09:11:59;27.68;;;23.28;;
23898;SDS011;20544;50.018;20.010;2024-03-08T09:15:40;33.18;;;24.93;;
23898;SDS011;20544;50.018;20.010;2024-03-08T09:23:17;35.68;;;26.05;;
23898;SDS011;20544;50.018;20.010;2024-03-08T09:27:06;30.60;;;24.53;;
23898;SDS011;20544;50.018;20.010;2024-03-08T09:30:29;34.70;;;24.03;;
23898;SDS011;20544;50.018;20.010;2024-03-08T09:34:04;28.08;;;21.98;;
23898;SDS011;20544;50.018;20.010;2024-03-08T09:37:44;32.80;;;25.90;;
23898;SDS011;20544;50.018;20.010;2024-03-08T09:41:15;36.78;;;24.40;;
23898;SDS011;20544;50.018;20.010;2024-03-08T09:49:08;31.15;;;25.33;;
23898;SDS011;20544;50.018;20.010;2024-03-08T09:52:35;26.78;;;22.58;;
23898;SDS011;20544;50.018;20.010;2024-03-08T09:56:03;33.35;;;24.48;;
23898;SDS011;20544;50.018;20.010;2024-03-08T09:59:33;35.13;;;24.23;;
23898;SDS011;20544;50.018;20.010;2024-03-08T10:03:05;33.73;;;24.30;;
23898;SDS011;20544;50.018;20.010;2024-03-08T10:06:38;33.68;;;25.15;;
23898;SDS011;20544;50.018;20.010;2024-03-08T10:10:20;32.08;;;24.55;;
23898;SDS011;20544;50.018;20.010;2024-03-08T10:13:49;31.05;;;23.25;;
23898;SDS011;20544;50.018;20.010;2024-03-08T10:17:20;33.38;;;24.35;;
23898;SDS011;20544;50.018;20.010;2024-03-08T10:21:05;35.75;;;24.30;;
23898;SDS011;20544;50.018;20.010;2024-03-08T10:24:47;28.95;;;23.30;;
23898;SDS011;20544;50.018;20.010;2024-03-08T10:28:24;33.75;;;24.53;;
23898;SDS011;20544;50.018;20.010;2024-03-08T10:32:07;28.33;;;23.68;;
23898;SDS011;20544;50.018;20.010;2024-03-08T10:39:35;33.70;;;24.60;;
23898;SDS011;20544;50.018;20.010;2024-03-08T10:43:14;36.48;;;23.48;;
23898;SDS011;20544;50.018;20.010;2024-03-08T10:46:49;32.15;;;23.40;;
23898;SDS011;20544;50.018;20.010;2024-03-08T10:50:31;29.20;;;21.85;;
23898;SDS011;20544;50.018;20.010;2024-03-08T10:54:22;28.23;;;22.43;;
23898;SDS011;20544;50.018;20.010;2024-03-08T10:57:57;33.50;;;22.40;;
23898;SDS011;20544;50.018;20.010;2024-03-08T11:01:23;32.98;;;22.90;;
23898;SDS011;20544;50.018;20.010;2024-03-08T11:04:50;30.05;;;21.43;;
23898;SDS011;20544;50.018;20.010;2024-03-08T11:08:37;32.90;;;22.48;;
23898;SDS011;20544;50.018;20.010;2024-03-08T11:15:46;26.60;;;21.18;;
23898;SDS011;20544;50.018;20.010;2024-03-08T11:19:23;28.58;;;22.83;;
23898;SDS011;20544;50.018;20.010;2024-03-08T11:23:08;22.63;;;19.70;;
23898;SDS011;20544;50.018;20.010;2024-03-08T11:26:40;25.35;;;19.98;;
23898;SDS011;20544;50.018;20.010;2024-03-08T11:30:37;25.08;;;21.30;;
23898;SDS011;20544;50.018;20.010;2024-03-08T11:34:17;28.85;;;21.77;;
23898;SDS011;20544;50.018;20.010;2024-03-08T11:37:55;28.15;;;20.52;;
23898;SDS011;20544;50.018;20.010;2024-03-08T11:41:40;28.55;;;20.55;;
23898;SDS011;20544;50.018;20.010;2024-03-08T11:45:12;25.53;;;20.20;;
23898;SDS011;20544;50.018;20.010;2024-03-08T11:49:11;24.45;;;19.48;;
23898;SDS011;20544;50.018;20.010;2024-03-08T11:52:48;26.38;;;19.15;;
23898;SDS011;20544;50.018;20.010;2024-03-08T11:56:33;24.55;;;19.30;;
23898;SDS011;20544;50.018;20.010;2024-03-08T12:00:07;30.88;;;19.40;;
23898;SDS011;20544;50.018;20.010;2024-03-08T12:03:48;39.85;;;21.88;;
23898;SDS011;20544;50.018;20.010;2024-03-08T12:07:12;27.80;;;20.18;;
23898;SDS011;20544;50.018;20.010;2024-03-08T12:10:40;29.58;;;19.60;;
23898;SDS011;20544;50.018;20.010;2024-03-08T12:14:19;20.98;;;18.60;;
23898;SDS011;20544;50.018;20.010;2024-03-08T12:17:41;27.10;;;19.13;;
23898;SDS011;20544;50.018;20.010;2024-03-08T12:24:25;26.75;;;18.53;;
23898;SDS011;20544;50.018;20.010;2024-03-08T12:28:06;25.78;;;19.00;;
23898;SDS011;20544;50.018;20.010;2024-03-08T12:31:31;25.68;;;19.08;;
23898;SDS011;20544;50.018;20.010;2024-03-08T12:34:57;24.03;;;18.90;;
23898;SDS011;20544;50.018;20.010;2024-03-08T12:38:27;28.10;;;20.55;;
23898;SDS011;20544;50.018;20.010;2024-03-08T12:41:58;22.45;;;18.35;;
23898;SDS011;20544;50.018;20.010;2024-03-08T12:45:22;25.50;;;19.13;;
23898;SDS011;20544;50.018;20.010;2024-03-08T12:48:44;24.78;;;18.38;;
23898;SDS011;20544;50.018;20.010;2024-03-08T12:52:11;24.65;;;19.85;;
23898;SDS011;20544;50.018;20.010;2024-03-08T12:55:30;26.00;;;18.45;;
23898;SDS011;20544;50.018;20.010;2024-03-08T12:58:56;28.28;;;19.93;;
23898;SDS011;20544;50.018;20.010;2024-03-08T13:02:17;29.90;;;20.05;;
23898;SDS011;20544;50.018;20.010;2024-03-08T13:05:38;26.05;;;19.10;;
23898;SDS011;20544;50.018;20.010;2024-03-08T13:09:11;27.93;;;18.95;;
23898;SDS011;20544;50.018;20.010;2024-03-08T13:12:37;29.35;;;21.00;;
23898;SDS011;20544;50.018;20.010;2024-03-08T13:16:01;29.00;;;19.98;;
23898;SDS011;20544;50.018;20.010;2024-03-08T13:19:26;28.43;;;21.17;;
23898;SDS011;20544;50.018;20.010;2024-03-08T13:22:48;21.73;;;18.58;;
23898;SDS011;20544;50.018;20.010;2024-03-08T13:26:12;23.38;;;18.28;;
23898;SDS011;20544;50.018;20.010;2024-03-08T13:29:34;27.78;;;19.65;;
23898;SDS011;20544;50.018;20.010;2024-03-08T13:32:59;26.20;;;18.93;;
23898;SDS011;20544;50.018;20.010;2024-03-08T13:36:19;24.15;;;19.33;;
23898;SDS011;20544;50.018;20.010;2024-03-08T13:43:17;24.83;;;19.23;;
23898;SDS011;20544;50.018;20.010;2024-03-08T13:46:42;24.28;;;18.75;;
23898;SDS011;20544;50.018;20.010;2024-03-08T13:50:09;24.88;;;19.23;;
23898;SDS011;20544;50.018;20.010;2024-03-08T13:53:29;27.93;;;19.90;;
23898;SDS011;20544;50.018;20.010;2024-03-08T13:56:49;25.60;;;17.68;;
23898;SDS011;20544;50.018;20.010;2024-03-08T14:00:22;25.60;;;18.68;;
23898;SDS011;20544;50.018;20.010;2024-03-08T14:03:48;67.10;;;45.63;;
23898;SDS011;20544;50.018;20.010;2024-03-08T14:07:20;28.68;;;21.68;;
23898;SDS011;20544;50.018;20.010;2024-03-08T14:10:46;24.15;;;18.98;;
23898;SDS011;20544;50.018;20.010;2024-03-08T14:17:34;25.88;;;20.05;;
23898;SDS011;20544;50.018;20.010;2024-03-08T14:21:03;26.18;;;18.43;;
23898;SDS011;20544;50.018;20.010;2024-03-08T14:24:30;24.15;;;16.63;;
23898;SDS011;20544;50.018;20.010;2024-03-08T14:27:49;34.33;;;20.85;;
23898;SDS011;20544;50.018;20.010;2024-03-08T14:31:15;32.48;;;20.15;;
23898;SDS011;20544;50.018;20.010;2024-03-08T14:34:39;33.05;;;20.70;;
23898;SDS011;20544;50.018;20.010;2024-03-08T14:38:04;24.80;;;18.60;;
23898;SDS011;20544;50.018;20.010;2024-03-08T14:41:27;21.28;;;18.95;;
23898;SDS011;20544;50.018;20.010;2024-03-08T14:44:44;25.40;;;18.98;;
23898;SDS011;20544;50.018;20.010;2024-03-08T14:48:07;22.50;;;18.63;;
23898;SDS011;20544;50.018;20.010;2024-03-08T14:51:31;23.10;;;18.05;;
23898;SDS011;20544;50.018;20.010;2024-03-08T14:55:01;26.20;;;19.58;;
23898;SDS011;20544;50.018;20.010;2024-03-08T14:58:59;25.28;;;18.90;;
23898;SDS011;20544;50.018;20.010;2024-03-08T15:02:21;25.60;;;18.78;;
23898;SDS011;20544;50.018;20.010;2024-03-08T15:05:38;28.13;;;20.20;;
23898;SDS011;20544;50.018;20.010;2024-03-08T15:09:04;26.90;;;19.80;;
23898;SDS011;20544;50.018;20.010;2024-03-08T15:12:28;24.78;;;18.38;;
23898;SDS011;20544;50.018;20.010;2024-03-08T15:15:48;26.55;;;19.53;;
23898;SDS011;20544;50.018;20.010;2024-03-08T15:22:23;24.48;;;18.23;;
23898;SDS011;20544;50.018;20.010;2024-03-08T15:25:47;28.35;;;18.68;;
23898;SDS011;20544;50.018;20.010;2024-03-08T15:29:10;21.15;;;18.83;;
23898;SDS011;20544;50.018;20.010;2024-03-08T15:32:35;28.03;;;20.18;;
23898;SDS011;20544;50.018;20.010;2024-03-08T15:35:56;22.65;;;18.65;;
23898;SDS011;20544;50.018;20.010;2024-03-08T15:39:19;23.65;;;19.15;;
23898;SDS011;20544;50.018;20.010;2024-03-08T15:42:43;24.80;;;19.63;;
23898;SDS011;20544;50.018;20.010;2024-03-08T15:46:03;29.58;;;20.20;;
23898;SDS011;20544;50.018;20.010;2024-03-08T15:49:21;29.63;;;19.98;;
23898;SDS011;20544;50.018;20.010;2024-03-08T15:52:39;30.88;;;20.90;;
23898;SDS011;20544;50.018;20.010;2024-03-08T15:56:02;25.43;;;21.63;;
23898;SDS011;20544;50.018;20.010;2024-03-08T15:59:22;28.73;;;22.23;;
23898;SDS011;20544;50.018;20.010;2024-03-08T16:02:42;27.10;;;21.15;;
23898;SDS011;20544;50.018;20.010;2024-03-08T16:05:59;30.50;;;20.40;;
23898;SDS011;20544;50.018;20.010;2024-03-08T16:09:17;24.18;;;20.50;;
23898;SDS011;20544;50.018;20.010;2024-03-08T16:15:53;30.45;;;21.35;;
23898;SDS011;20544;50.018;20.010;2024-03-08T16:19:11;28.95;;;22.20;;
23898;SDS011;20544;50.018;20.010;2024-03-08T16:22:31;29.25;;;23.18;;
23898;SDS011;20544;50.018;20.010;2024-03-08T16:25:49;32.78;;;23.88;;
23898;SDS011;20544;50.018;20.010;2024-03-08T16:29:07;26.15;;;23.33;;
23898;SDS011;20544;50.018;20.010;2024-03-08T16:32:25;35.13;;;25.98;;
23898;SDS011;20544;50.018;20.010;2024-03-08T16:35:43;33.88;;;25.30;;
23898;SDS011;20544;50.018;20.010;2024-03-08T16:39:02;41.25;;;26.13;;
23898;SDS011;20544;50.018;20.010;2024-03-08T16:42:20;35.20;;;25.80;;
23898;SDS011;20544;50.018;20.010;2024-03-08T16:45:38;37.55;;;26.60;;
23898;SDS011;20544;50.018;20.010;2024-03-08T16:49:02;41.08;;;27.78;;
23898;SDS011;20544;50.018;20.010;2024-03-08T16:52:22;42.80;;;27.58;;
23898;SDS011;20544;50.018;20.010;2024-03-08T16:55:40;36.83;;;28.50;;
23898;SDS011;20544;50.018;20.010;2024-03-08T16:59:00;36.93;;;27.43;;
23898;SDS011;20544;50.018;20.010;2024-03-08T17:02:30;39.65;;;28.18;;
23898;SDS011;20544;50.018;20.010;2024-03-08T17:09:06;41.45;;;29.53;;
23898;SDS011;20544;50.018;20.010;2024-03-08T17:12:23;39.98;;;27.70;;
23898;SDS011;20544;50.018;20.010;2024-03-08T17:15:41;38.50;;;29.25;;
23898;SDS011;20544;50.018;20.010;2024-03-08T17:19:00;38.60;;;28.10;;
23898;SDS011;20544;50.018;20.010;2024-03-08T17:22:26;39.15;;;27.80;;
23898;SDS011;20544;50.018;20.010;2024-03-08T17:25:49;41.80;;;28.88;;
23898;SDS011;20544;50.018;20.010;2024-03-08T17:29:08;39.40;;;30.10;;
23898;SDS011;20544;50.018;20.010;2024-03-08T17:32:33;45.03;;;29.33;;
23898;SDS011;20544;50.018;20.010;2024-03-08T17:35:56;38.03;;;29.20;;
23898;SDS011;20544;50.018;20.010;2024-03-08T17:39:19;42.45;;;30.15;;
23898;SDS011;20544;50.018;20.010;2024-03-08T17:42:40;40.00;;;30.63;;
23898;SDS011;20544;50.018;20.010;2024-03-08T17:45:59;43.60;;;30.33;;
23898;SDS011;20544;50.018;20.010;2024-03-08T17:49:19;48.78;;;31.20;;
23898;SDS011;20544;50.018;20.010;2024-03-08T17:52:38;51.20;;;31.23;;
23898;SDS011;20544;50.018;20.010;2024-03-08T17:55:59;40.23;;;31.25;;
23898;SDS011;20544;50.018;20.010;2024-03-08T17:59:17;43.75;;;31.00;;
23898;SDS011;20544;50.018;20.010;2024-03-08T18:02:36;52.20;;;40.53;;
23898;SDS011;20544;50.018;20.010;2024-03-08T18:06:02;44.68;;;29.60;;
23898;SDS011;20544;50.018;20.010;2024-03-08T18:09:21;45.98;;;32.03;;
23898;SDS011;20544;50.018;20.010;2024-03-08T18:12:39;49.15;;;30.23;;
23898;SDS011;20544;50.018;20.010;2024-03-08T18:16:05;47.15;;;29.98;;
23898;SDS011;20544;50.018;20.010;2024-03-08T18:19:29;45.48;;;30.43;;
23898;SDS011;20544;50.018;20.010;2024-03-08T18:23:04;63.35;;;30.98;;
23898;SDS011;20544;50.018;20.010;2024-03-08T18:26:25;43.80;;;33.58;;
23898;SDS011;20544;50.018;20.010;2024-03-08T18:29:45;46.88;;;33.18;;
23898;SDS011;20544;50.018;20.010;2024-03-08T18:33:03;48.68;;;38.38;;
23898;SDS011;20544;50.018;20.010;2024-03-08T18:36:23;52.33;;;35.90;;
23898;SDS011;20544;50.018;20.010;2024-03-08T18:39:42;50.90;;;34.28;;
23898;SDS011;20544;50.018;20.010;2024-03-08T18:43:00;50.08;;;33.03;;
23898;SDS011;20544;50.018;20.010;2024-03-08T18:46:42;49.38;;;33.80;;
23898;SDS011;20544;50.018;20.010;2024-03-08T18:50:09;56.80;;;35.63;;
23898;SDS011;20544;50.018;20.010;2024-03-08T18:53:44;44.48;;;35.43;;
23898;SDS011;20544;50.018;20.010;2024-03-08T18:57:16;53.23;;;35.35;;
23898;SDS011;20544;50.018;20.010;2024-03-08T19:00:41;48.65;;;35.18;;
23898;SDS011;20544;50.018;20.010;2024-03-08T19:04:01;46.80;;;35.08;;
23898;SDS011;20544;50.018;20.010;2024-03-08T19:07:21;60.18;;;36.40;;
23898;SDS011;20544;50.018;20.010;2024-03-08T19:10:41;49.50;;;36.28;;
23898;SDS011;20544;50.018;20.010;2024-03-08T19:13:59;51.98;;;38.40;;
23898;SDS011;20544;50.018;20.010;2024-03-08T19:20:34;59.30;;;37.45;;
23898;SDS011;20544;50.018;20.010;2024-03-08T19:23:55;46.53;;;35.85;;
23898;SDS011;20544;50.018;20.010;2024-03-08T19:30:30;48.78;;;39.30;;
23898;SDS011;20544;50.018;20.010;2024-03-08T19:33:50;66.00;;;40.15;;
23898;SDS011;20544;50.018;20.010;2024-03-08T19:37:08;58.30;;;41.03;;
23898;SDS011;20544;50.018;20.010;2024-03-08T19:40:29;64.78;;;42.83;;
23898;SDS011;20544;50.018;20.010;2024-03-08T19:43:50;56.45;;;42.85;;
23898;SDS011;20544;50.018;20.010;2024-03-08T19:47:07;52.85;;;40.05;;
23898;SDS011;20544;50.018;20.010;2024-03-08T19:50:26;51.40;;;43.90;;
23898;SDS011;20544;50.018;20.010;2024-03-08T19:53:54;52.53;;;40.38;;
23898;SDS011;20544;50.018;20.010;2024-03-08T19:57:15;67.60;;;43.28;;
23898;SDS011;20544;50.018;20.010;2024-03-08T20:00:34;66.48;;;43.83;;
23898;SDS011;20544;50.018;20.010;2024-03-08T20:03:56;70.48;;;46.98;;
23898;SDS011;20544;50.018;20.010;2024-03-08T20:07:20;73.10;;;47.65;;
23898;SDS011;20544;50.018;20.010;2024-03-08T20:10:41;68.73;;;49.53;;
23898;SDS011;20544;50.018;20.010;2024-03-08T20:14:16;72.80;;;51.45;;
23898;SDS011;20544;50.018;20.010;2024-03-08T20:17:38;82.30;;;60.50;;
23898;SDS011;20544;50.018;20.010;2024-03-08T20:20:58;76.60;;;53.43;;
23898;SDS011;20544;50.018;20.010;2024-03-08T20:24:18;76.95;;;54.03;;
23898;SDS011;20544;50.018;20.010;2024-03-08T20:27:47;71.93;;;53.08;;
23898;SDS011;20544;50.018;20.010;2024-03-08T20:31:10;75.18;;;53.58;;
23898;SDS011;20544;50.018;20.010;2024-03-08T20:34:33;79.28;;;55.93;;
23898;SDS011;20544;50.018;20.010;2024-03-08T20:37:51;69.83;;;51.03;;
23898;SDS011;20544;50.018;20.010;2024-03-08T20:41:12;67.30;;;50.90;;
23898;SDS011;20544;50.018;20.010;2024-03-08T20:44:37;70.45;;;49.68;;
23898;SDS011;20544;50.018;20.010;2024-03-08T20:48:10;69.88;;;52.18;;
23898;SDS011;20544;50.018;20.010;2024-03-08T20:51:31;68.70;;;51.77;;
23898;SDS011;20544;50.018;20.010;2024-03-08T20:54:57;75.08;;;51.60;;
23898;SDS011;20544;50.018;20.010;2024-03-08T20:58:16;69.33;;;50.65;;
23898;SDS011;20544;50.018;20.010;2024-03-08T21:01:38;82.95;;;56.23;;
23898;SDS011;20544;50.018;20.010;2024-03-08T21:04:57;84.25;;;55.35;;